CSP6 weather

Montreal / Aéroparc Île Perrot
Montréal, Quebec, Canada

Public forecast

Using degrees Celsius for public forecast. Weather courtesy of forecast.io.

METAR (pilot weather report)

Closest report is Montreal / Pierre Elliott Trudeau International Airport, 9.0 nm (16.7 km) NE. Retrieved 2019/05/23 10:00 UTC (15 minutes ago):

CYUL 231000Z 09005KT 060V130 30SM FEW090 BKN240 13/06 A3008 RMK AC2CI5 SLP186

TAF (pilot weather forecast)

Closest forecast is Montreal / Pierre Elliott Trudeau International Airport, 9.0 nm (16.7 km) NE. Retrieved 2019/05/23 09:42 UTC (33 minutes ago):

TAF CYUL 230838Z 2309/2406 10008KT P6SM BKN070 FM231300 12008KT P6SM SCT040 BKN140 FM231700 13010KT P6SM BKN040 BKN120 BECMG 2318/2320 13012G22KT FM232200 13015G30KT 6SM -SHRA BR OVC020 TEMPO 2322/2401 2SM +SHRA VCTS BR OVC012CB FM240100 24020G30KT P6SM -SHRA OVC020 BECMG 2404/2406 29015G25KT RMK NXT FCST BY 231200Z